createdAt,value
2023-03-13T00:01:48.009Z,17.82
2023-03-13T00:06:49.950Z,17.78
2023-03-13T00:11:52.361Z,17.70
2023-03-13T00:16:54.430Z,17.83
2023-03-13T00:21:56.452Z,17.77
2023-03-13T00:27:03.474Z,17.89
2023-03-13T00:32:05.962Z,17.89
2023-03-13T00:37:08.028Z,17.86
2023-03-13T00:42:09.918Z,17.86
2023-03-13T00:47:11.898Z,17.78
2023-03-13T00:52:13.916Z,17.90
2023-03-13T00:57:15.857Z,17.90
2023-03-13T01:02:18.219Z,17.97
2023-03-13T01:07:20.101Z,17.75
2023-03-13T01:12:22.023Z,17.90
2023-03-13T01:17:24.043Z,17.84
2023-03-13T01:22:26.063Z,17.78
2023-03-13T01:27:29.082Z,17.78
2023-03-13T01:32:33.977Z,17.87
2023-03-13T01:37:35.988Z,17.83
2023-03-13T01:42:55.258Z,17.82
2023-03-13T01:47:58.318Z,17.90
2023-03-13T01:53:00.447Z,17.89
2023-03-13T01:58:02.537Z,17.88
2023-03-13T02:03:09.353Z,17.94
2023-03-13T02:08:49.430Z,17.90
2023-03-13T02:13:52.297Z,17.88
2023-03-13T02:18:54.416Z,17.82
2023-03-13T02:24:22.963Z,17.89
2023-03-13T02:29:25.880Z,17.93
2023-03-13T02:34:32.602Z,17.93
2023-03-13T02:39:35.260Z,17.93
2023-03-13T02:44:41.326Z,17.95
2023-03-13T02:49:43.356Z,17.90
2023-03-13T02:54:47.719Z,17.90
2023-03-13T02:59:49.659Z,17.86
2023-03-13T03:04:51.520Z,17.89
2023-03-13T03:09:53.442Z,17.91
2023-03-13T03:14:55.280Z,17.94
2023-03-13T03:19:57.405Z,17.92
2023-03-13T03:24:59.327Z,17.92
2023-03-13T03:30:01.216Z,17.97
2023-03-13T03:35:03.385Z,17.93
2023-03-13T03:40:10.097Z,17.86
2023-03-13T03:45:12.084Z,17.90
2023-03-13T03:50:14.223Z,17.92
2023-03-13T03:55:16.212Z,18.00
2023-03-13T04:00:19.828Z,17.92
2023-03-13T04:05:22.606Z,17.90
2023-03-13T04:10:24.539Z,17.96
2023-03-13T04:15:26.607Z,17.94
2023-03-13T04:20:29.152Z,17.81
2023-03-13T04:25:31.211Z,17.81
2023-03-13T04:30:33.303Z,17.86
2023-03-13T04:35:35.274Z,17.85
2023-03-13T04:40:37.114Z,17.95
2023-03-13T04:45:38.994Z,17.88
2023-03-13T04:50:40.827Z,17.78
2023-03-13T04:55:42.986Z,17.87
2023-03-13T05:00:44.786Z,17.85
2023-03-13T05:05:46.662Z,17.95
2023-03-13T05:10:48.465Z,17.92
2023-03-13T05:15:50.384Z,17.88
2023-03-13T05:20:52.273Z,17.95
2023-03-13T05:25:56.639Z,17.98
2023-03-13T05:30:58.730Z,17.87
2023-03-13T05:36:00.631Z,17.92
2023-03-13T05:41:02.760Z,17.94
2023-03-13T05:46:04.985Z,17.92
2023-03-13T05:51:07.225Z,17.94
2023-03-13T05:56:09.376Z,17.91
2023-03-13T06:01:13.810Z,17.93
2023-03-13T06:06:15.955Z,17.91
2023-03-13T06:11:17.911Z,17.91
2023-03-13T06:16:20.333Z,17.97
2023-03-13T06:21:22.089Z,17.98
2023-03-13T06:26:26.066Z,17.94
2023-03-13T06:31:27.937Z,17.92
2023-03-13T06:36:29.945Z,17.90
2023-03-13T06:41:31.877Z,17.98
2023-03-13T06:46:33.753Z,17.94
2023-03-13T06:51:35.654Z,17.92
2023-03-13T06:56:37.782Z,18.00
2023-03-13T07:01:39.545Z,17.83
2023-03-13T07:06:41.353Z,17.92
2023-03-13T07:11:43.308Z,17.74
2023-03-13T07:16:46.549Z,17.94
2023-03-13T07:21:49.880Z,17.58
2023-03-13T07:27:04.914Z,17.97
2023-03-13T07:32:09.477Z,17.96
2023-03-13T07:37:12.893Z,17.99
2023-03-13T07:42:14.744Z,18.01
2023-03-13T07:47:16.901Z,18.05
2023-03-13T07:52:23.312Z,17.94
2023-03-13T07:57:25.229Z,17.91
2023-03-13T08:02:27.346Z,17.94
2023-03-13T08:07:29.336Z,18.08
2023-03-13T08:12:31.365Z,18.08
2023-03-13T08:17:33.227Z,18.03
2023-03-13T08:22:37.255Z,18.09
2023-03-13T08:27:39.437Z,17.98
2023-03-13T08:32:41.585Z,18.15
2023-03-13T08:37:43.790Z,17.96
2023-03-13T08:42:45.920Z,17.94
2023-03-13T08:47:52.164Z,18.16
2023-03-13T08:52:54.227Z,18.01
2023-03-13T08:57:56.322Z,18.13
2023-03-13T09:02:58.775Z,18.13
2023-03-13T09:08:00.647Z,18.17
2023-03-13T09:13:03.274Z,18.17
2023-03-13T09:18:06.755Z,18.10
2023-03-13T09:23:08.698Z,17.94
2023-03-13T09:28:10.699Z,17.93
2023-03-13T09:33:12.859Z,17.88
2023-03-13T09:38:15.295Z,17.62
2023-03-13T09:43:41.385Z,17.47
2023-03-13T09:48:51.565Z,17.45
2023-03-13T09:54:09.113Z,17.43
2023-03-13T09:59:18.029Z,17.49
2023-03-13T10:04:20.043Z,17.42
2023-03-13T10:09:30.036Z,17.46
2023-03-13T10:15:02.598Z,17.55
2023-03-13T10:20:24.905Z,17.39
2023-03-13T10:25:41.322Z,17.35
2023-03-13T10:30:48.756Z,17.65
2023-03-13T10:36:09.306Z,17.48
2023-03-13T10:41:20.429Z,17.50
2023-03-13T10:46:31.133Z,17.46
2023-03-13T10:51:38.861Z,17.38
2023-03-13T10:56:40.802Z,17.50
2023-03-13T11:01:45.140Z,17.48
2023-03-13T11:06:58.270Z,17.47
2023-03-13T11:12:21.234Z,17.52
2023-03-13T11:17:29.135Z,17.46
2023-03-13T11:22:54.118Z,17.44
2023-03-13T11:28:14.221Z,17.46
2023-03-13T11:33:33.475Z,17.40
2023-03-13T11:38:44.770Z,17.45
2023-03-13T11:44:04.654Z,17.48
2023-03-13T11:49:34.819Z,17.49
2023-03-13T11:54:54.621Z,17.50
2023-03-13T12:00:23.097Z,17.59
2023-03-13T12:05:26.674Z,17.55
2023-03-13T12:10:44.350Z,17.71
2023-03-13T12:15:51.964Z,17.39
2023-03-13T12:21:06.840Z,17.44
2023-03-13T12:26:20.924Z,17.52
2023-03-13T12:31:28.775Z,17.62
2023-03-13T12:36:44.453Z,17.62
2023-03-13T12:42:07.897Z,17.47
2023-03-13T12:47:33.741Z,17.59
2023-03-13T12:53:02.180Z,17.53
2023-03-13T12:58:18.058Z,17.52
2023-03-13T13:03:44.429Z,17.68
2023-03-13T13:09:02.394Z,17.56
2023-03-13T13:14:19.212Z,17.66
2023-03-13T13:19:23.937Z,17.36
2023-03-13T13:24:41.124Z,17.44
2023-03-13T13:29:42.904Z,17.40
2023-03-13T13:35:06.974Z,17.50
2023-03-13T13:40:29.605Z,17.55
2023-03-13T13:45:38.264Z,17.78
2023-03-13T13:50:40.384Z,17.72
2023-03-13T13:55:44.513Z,17.92
2023-03-13T14:00:54.319Z,18.03
2023-03-13T14:06:40.970Z,17.53
2023-03-13T14:11:43.097Z,17.59
2023-03-13T14:16:52.812Z,17.48
2023-03-13T14:22:00.404Z,17.54
2023-03-13T14:27:03.546Z,17.56
2023-03-13T14:32:06.478Z,17.39
2023-03-13T14:37:38.340Z,17.64
2023-03-13T14:42:48.332Z,17.57
2023-03-13T14:47:54.508Z,17.59
2023-03-13T14:53:12.739Z,17.61
2023-03-13T14:58:20.628Z,17.66
2023-03-13T15:03:31.811Z,17.79
2023-03-13T15:08:35.949Z,17.64
2023-03-13T15:13:38.224Z,17.35
2023-03-13T15:18:40.836Z,17.55
2023-03-13T15:23:47.460Z,17.48
2023-03-13T15:28:49.679Z,17.44
2023-03-13T15:33:56.882Z,17.38
2023-03-13T15:38:58.870Z,17.40
2023-03-13T15:44:00.965Z,17.35
2023-03-13T15:49:03.177Z,17.36
2023-03-13T15:54:05.152Z,17.48
2023-03-13T15:59:12.085Z,17.68
2023-03-13T16:04:14.298Z,17.56
2023-03-13T16:09:18.146Z,17.73
2023-03-13T16:14:20.222Z,17.58
2023-03-13T16:19:22.004Z,18.00
2023-03-13T16:24:23.865Z,18.01
2023-03-13T16:29:25.928Z,18.00
2023-03-13T16:34:27.741Z,17.98
2023-03-13T16:39:29.773Z,17.98
2023-03-13T16:44:31.753Z,17.98
2023-03-13T16:49:33.717Z,18.03
2023-03-13T16:54:35.667Z,18.01
2023-03-13T16:59:37.628Z,18.08
2023-03-13T17:04:39.549Z,18.04
2023-03-13T17:09:41.868Z,18.00
2023-03-13T17:14:44.108Z,18.02
2023-03-13T17:19:46.078Z,17.90
2023-03-13T17:24:49.452Z,18.02
2023-03-13T17:29:51.192Z,18.02
2023-03-13T17:34:53.171Z,17.96
2023-03-13T17:39:55.394Z,18.06
2023-03-13T17:44:57.263Z,18.22
2023-03-13T17:49:59.177Z,18.25
2023-03-13T17:55:01.114Z,18.25
2023-03-13T18:00:04.247Z,18.32
2023-03-13T18:05:06.528Z,18.38
2023-03-13T18:10:19.600Z,18.34
2023-03-13T18:15:22.971Z,18.52
2023-03-13T18:20:27.061Z,18.23
2023-03-13T18:25:29.671Z,18.01
2023-03-13T18:30:31.551Z,17.97
2023-03-13T18:35:33.732Z,18.00
2023-03-13T18:40:35.713Z,17.98
2023-03-13T18:45:38.630Z,17.86
2023-03-13T18:50:40.645Z,17.87
2023-03-13T18:55:42.804Z,17.91
2023-03-13T19:00:45.026Z,18.02
2023-03-13T19:05:46.838Z,18.04
2023-03-13T19:10:49.122Z,18.00
2023-03-13T19:15:51.422Z,18.13
2023-03-13T19:20:53.549Z,18.22
2023-03-13T19:25:57.128Z,18.23
2023-03-13T19:30:58.991Z,18.20
2023-03-13T19:36:01.610Z,18.18
2023-03-13T19:41:04.097Z,18.31
2023-03-13T19:46:21.393Z,18.35
2023-03-13T19:51:24.144Z,18.39
2023-03-13T19:56:31.308Z,18.42
2023-03-13T20:01:33.365Z,18.25
2023-03-13T20:06:35.909Z,18.07
2023-03-13T20:11:38.294Z,18.27
2023-03-13T20:16:40.140Z,18.28
2023-03-13T20:21:43.146Z,18.20
2023-03-13T20:26:45.068Z,18.22
2023-03-13T20:31:47.253Z,18.40
2023-03-13T20:36:49.206Z,18.40
2023-03-13T20:41:51.200Z,18.38
2023-03-13T20:46:53.261Z,18.45
2023-03-13T20:51:55.317Z,18.33
2023-03-13T20:56:58.493Z,18.03
2023-03-13T21:02:00.494Z,17.97
2023-03-13T21:07:04.783Z,18.06
2023-03-13T21:12:07.433Z,18.13
2023-03-13T21:17:11.546Z,18.21
2023-03-13T21:22:13.609Z,18.26
2023-03-13T21:27:16.255Z,18.34
2023-03-13T21:32:19.767Z,18.44
2023-03-13T21:37:21.871Z,18.55
2023-03-13T21:42:23.868Z,18.35
2023-03-13T21:47:26.206Z,18.19
2023-03-13T21:52:28.257Z,18.11
2023-03-13T21:57:30.732Z,18.21
2023-03-13T22:02:32.889Z,17.87
2023-03-13T22:07:36.132Z,18.21
2023-03-13T22:12:38.154Z,18.43
2023-03-13T22:17:40.110Z,18.33
2023-03-13T22:22:41.950Z,18.15
2023-03-13T22:27:43.943Z,18.30
2023-03-13T22:32:46.034Z,18.22
2023-03-13T22:37:48.301Z,18.32
2023-03-13T22:42:51.937Z,18.61
2023-03-13T22:47:53.951Z,18.63
2023-03-13T22:52:56.129Z,18.59
2023-03-13T22:57:58.250Z,18.76
2023-03-13T23:03:00.490Z,18.79
2023-03-13T23:08:02.465Z,18.72
2023-03-13T23:13:04.803Z,18.73
2023-03-13T23:18:08.153Z,18.68
2023-03-13T23:23:10.104Z,18.74
2023-03-13T23:28:12.153Z,18.71
2023-03-13T23:33:14.081Z,18.80
2023-03-13T23:38:18.690Z,18.75
2023-03-13T23:43:20.856Z,18.69
2023-03-13T23:48:22.768Z,18.66
2023-03-13T23:53:24.769Z,18.72
2023-03-13T23:58:26.896Z,18.63
